KDBQ/DBQ METAR and TAF weather

Enter ICAO airport designator
Station Type Date Time Source
KDBQ METAR 2018/01/23 01:00 UTC NOAA

KDBQ 230100Z 05010KT 3SM BR OVC002 03/02 A2948 RMK AO2 T00280022


Station Type Date Time Source
KDBQ Decoded METAR 2018/01/23 01:00 UTC NOAA

DUBUQUE REGIONAL AIRPORT, IA, United States (KDBQ) 42-24N 90-42W 326M
Jan 22, 2018 - 08:00 PM EST / 2018.01.23 0100 UTC
Wind: from the NE (050 degrees) at 12 MPH (10 KT):0
Visibility: 3 mile(s):0
Sky conditions: overcast
Weather: mist
Temperature: 37.0 F (2.8 C)
Dew Point: 36.0 F (2.2 C)
Relative Humidity: 95%
Pressure (altimeter): 29.48 in. Hg (998 hPa)
ob: KDBQ 230100Z 05010KT 3SM BR OVC002 03/02 A2948 RMK AO2 T00280022
cycle: 1

Station Type Date Time Source
KDBQ TAF 2018/01/23 01:57 UTC NOAA

TAF
AMD KDBQ 230055Z 2301/2324 03009KT 1 1/2SM BR OVC002
FM230400 01011KT P6SM OVC004
FM230600 34013KT 2SM -SN BR OVC006
FM231100 34015G25KT P6SM OVC007
FM231500 33015G23KT P6SM OVC015


Example: see airport list